Time;durP1;ratioP1;P1;durP2;ratioP2;P2;SDS_P1;SDS_P2;PMS_P1;PMS_P2;Temp;Humidity;BMP_temperature;BMP_pressure;BME280_temperature;BME280_humidity;BME280_pressure;Samples;Min_cycle;Max_cycle;Signal;HPM_P1;HPM_P2
2022/07/24 09:42:42;;;;;;;;;;;;;;;17.67;60.50;100385.19;5474946;23;3038;-94
2022/07/24 09:45:36;;;;;;;;;;;;;;;17.68;60.55;100392.28;5038733;28;685;-95
2022/07/24 09:51:30;;;;;;;;;;;;;;;17.68;60.53;100396.91;5693594;23;2186;-94
2022/07/24 10:30:55;;;;;;;;;;;;;;;17.73;60.62;100380.56;5454139;23;3566;-94
2022/07/24 10:33:31;;;;;;;;;;;;;;;17.74;60.62;100379.50;5033211;28;854;-95
2022/07/24 10:42:09;;;;;;;;;;;;;;;17.75;60.43;100374.84;5120299;23;3617;-96
2022/07/24 10:47:24;;;;;;;;;;;;;;;17.76;60.39;100369.13;5001273;28;1887;-95
2022/07/24 11:03:43;;;;;;;;;;;;;;;17.79;60.68;100365.06;4974687;28;1924;-94
2022/07/24 11:12:27;;;;;;;;;;;;;;;17.80;60.52;100364.00;5189647;23;3707;-94
2022/07/24 11:18:02;;;;;;;;;;;;;;;17.81;60.72;100360.19;5017263;28;1280;-95
2022/07/24 11:20:32;;;;;;;;;;;;;;;17.81;60.60;100349.28;5001627;28;1177;-94
2022/07/24 11:22:59;;;;;;;;;;;;;;;17.81;60.62;100341.91;5018350;28;1178;-96
2022/07/24 11:28:09;;;;;;;;;;;;;;;17.83;60.70;100336.22;5012622;28;1891;-95
2022/07/24 11:30:35;;;;;;;;;;;;;;;17.83;60.56;100347.13;5014288;28;1223;-94
2022/07/24 11:33:05;;;;;;;;;;;;;;;17.85;60.72;100342.19;5014841;28;1428;-96
2022/07/24 11:35:33;;;;;;;;;;;;;;;17.84;60.72;100337.84;5030744;28;1205;-94
2022/07/24 11:38:11;;;;;;;;;;;;;;;17.84;60.70;100329.66;5014980;28;1933;-96
2022/07/24 11:48:58;;;;;;;;;;;;;;;17.86;60.81;100339.22;5011790;28;1275;-95
2022/07/24 11:51:28;;;;;;;;;;;;;;;17.86;60.86;100344.66;4997368;28;1178;-95
2022/07/24 11:53:55;;;;;;;;;;;;;;;17.86;60.81;100347.38;4997107;28;1309;-95
2022/07/24 11:59:10;;;;;;;;;;;;;;;17.88;61.06;100355.25;5014515;28;1133;-94
2022/07/24 12:01:37;;;;;;;;;;;;;;;17.88;61.04;100368.88;5018031;28;1834;-96
2022/07/24 12:12:15;;;;;;;;;;;;;;;17.88;61.11;100364.28;5013461;28;1348;-94
2022/07/24 12:14:44;;;;;;;;;;;;;;;17.89;61.03;100354.19;4998788;28;1181;-95
2022/07/24 12:23:29;;;;;;;;;;;;;;;17.90;61.15;100362.06;5026066;28;966;-94
2022/07/24 12:25:56;;;;;;;;;;;;;;;17.90;61.08;100370.25;5018512;28;1315;-96
2022/07/24 12:28:23;;;;;;;;;;;;;;;17.91;60.99;100363.72;5021955;28;1891;-94
2022/07/24 12:30:50;;;;;;;;;;;;;;;17.91;61.24;100365.63;5021928;28;1461;-95
2022/07/24 12:44:58;;;;;;;;;;;;;;;17.92;61.07;100353.66;4978692;28;1239;-94
2022/07/24 12:47:58;;;;;;;;;;;;;;;17.93;61.05;100360.72;5104631;23;3666;-96
2022/07/24 12:56:22;;;;;;;;;;;;;;;17.93;61.36;100326.13;5037383;28;774;-95
2022/07/24 13:01:35;;;;;;;;;;;;;;;17.95;61.29;100327.75;5002329;28;1398;-95
2022/07/24 13:04:03;;;;;;;;;;;;;;;17.95;61.11;100330.50;5001254;28;849;-93
2022/07/24 13:06:30;;;;;;;;;;;;;;;17.95;61.45;100330.50;4998136;28;1297;-94
2022/07/24 13:08:57;;;;;;;;;;;;;;;17.96;61.21;100340.28;4997956;28;1316;-94
2022/07/24 13:11:23;;;;;;;;;;;;;;;17.95;61.29;100333.22;4996034;28;1262;-95
2022/07/24 13:13:50;;;;;;;;;;;;;;;17.95;61.34;100335.94;5010142;28;1508;-94
2022/07/24 13:16:19;;;;;;;;;;;;;;;17.96;61.34;100337.56;5015429;28;1353;-95
2022/07/24 13:18:46;;;;;;;;;;;;;;;17.97;61.38;100339.19;5015741;28;1359;-94
2022/07/24 13:21:12;;;;;;;;;;;;;;;17.96;61.27;100329.38;5012549;28;1208;-95
2022/07/24 13:23:52;;;;;;;;;;;;;;;17.96;61.18;100332.13;5010789;28;1228;-95
2022/07/24 13:26:36;;;;;;;;;;;;;;;17.97;61.26;100329.13;4992019;28;1254;-94
2022/07/24 13:35:02;;;;;;;;;;;;;;;17.97;61.35;100317.38;5036788;28;745;-95
2022/07/24 13:37:30;;;;;;;;;;;;;;;17.98;61.31;100319.03;5018974;28;1362;-96
2022/07/24 13:43:09;;;;;;;;;;;;;;;17.98;61.49;100327.22;5026845;28;624;-94
2022/07/24 13:46:04;;;;;;;;;;;;;;;17.97;61.36;100326.41;5029775;28;671;-94
2022/07/24 13:52:16;;;;;;;;;;;;;;;17.98;61.55;100336.19;5036463;28;616;-94
2022/07/24 13:55:09;;;;;;;;;;;;;;;17.98;61.47;100333.47;5027239;28;1726;-96
2022/07/24 13:58:10;;;;;;;;;;;;;;;17.98;61.38;100325.31;5025578;28;659;-94
2022/07/24 14:00:38;;;;;;;;;;;;;;;17.98;61.53;100330.75;5006388;28;1991;-93
2022/07/24 14:03:05;;;;;;;;;;;;;;;17.99;61.54;100323.38;5006514;28;1341;-92
2022/07/24 14:08:18;;;;;;;;;;;;;;;17.99;61.48;100324.19;5007161;28;1983;-96
2022/07/24 14:11:08;;;;;;;;;;;;;;;18.00;61.59;100319.56;5010152;28;1468;-95
2022/07/24 14:13:41;;;;;;;;;;;;;;;17.99;61.58;100323.38;5010077;28;1486;-95
2022/07/24 14:16:09;;;;;;;;;;;;;;;17.98;61.34;100325.31;5011997;28;1727;-96
2022/07/24 14:18:36;;;;;;;;;;;;;;;17.99;61.42;100326.13;5007678;28;1174;-94
2022/07/24 14:21:04;;;;;;;;;;;;;;;17.99;61.48;100313.31;5010234;28;1320;-93
2022/07/24 14:31:55;;;;;;;;;;;;;;;17.98;61.52;100317.13;5080857;23;2164;-95
2022/07/24 14:34:21;;;;;;;;;;;;;;;17.99;61.56;100316.03;5008493;28;1639;-94
2022/07/24 14:36:48;;;;;;;;;;;;;;;18.00;61.61;100308.66;5000898;28;1747;-94
2022/07/24 14:39:17;;;;;;;;;;;;;;;18.00;61.76;100314.13;5011378;28;1425;-94
2022/07/24 14:41:45;;;;;;;;;;;;;;;18.00;61.68;100303.22;5010609;28;1305;-96
2022/07/24 14:53:13;;;;;;;;;;;;;;;17.97;61.88;100307.34;5092737;23;1952;-93
2022/07/24 15:01:41;;;;;;;;;;;;;;;17.99;61.93;100304.31;5012791;28;1734;-95
2022/07/24 15:04:14;;;;;;;;;;;;;;;17.98;61.70;100295.34;5009019;28;1349;-94
2022/07/24 15:09:28;;;;;;;;;;;;;;;17.97;61.67;100293.72;5017491;28;1406;-95
2022/07/24 15:11:55;;;;;;;;;;;;;;;17.98;61.68;100289.88;5016292;28;1497;-94
2022/07/24 15:17:22;;;;;;;;;;;;;;;17.98;61.67;100278.19;5030039;28;1504;-96
2022/07/24 15:19:49;;;;;;;;;;;;;;;17.97;61.65;100282.81;5017643;28;1016;-95
2022/07/24 15:22:16;;;;;;;;;;;;;;;17.97;61.64;100273.78;5032044;28;941;-94
2022/07/24 15:24:56;;;;;;;;;;;;;;;17.96;61.73;100270.25;5009413;28;1811;-95
2022/07/24 15:27:23;;;;;;;;;;;;;;;17.97;61.67;100268.34;5008810;28;1899;-94
2022/07/24 15:32:57;;;;;;;;;;;;;;;17.95;61.68;100257.75;5027223;28;616;-95
2022/07/24 15:35:25;;;;;;;;;;;;;;;17.95;61.70;100255.03;5008275;28;1478;-96
2022/07/24 15:37:51;;;;;;;;;;;;;;;17.94;61.88;100253.38;5010251;28;1343;-93
2022/07/24 15:40:18;;;;;;;;;;;;;;;17.95;61.58;100249.56;5008659;28;1166;-94
2022/07/24 15:42:45;;;;;;;;;;;;;;;17.95;61.84;100248.75;5009983;28;1262;-94
2022/07/24 15:45:12;;;;;;;;;;;;;;;17.94;61.76;100245.19;5009494;28;1177;-94
2022/07/24 15:47:38;;;;;;;;;;;;;;;17.94;61.70;100237.03;5009604;28;1914;-94
2022/07/24 15:50:05;;;;;;;;;;;;;;;17.93;61.70;100235.41;5008079;28;1190;-94
2022/07/24 15:52:32;;;;;;;;;;;;;;;17.93;61.56;100233.47;5010913;28;1370;-95
2022/07/24 15:57:40;;;;;;;;;;;;;;;17.92;61.63;100228.31;5010617;28;1337;-93
2022/07/24 16:00:08;;;;;;;;;;;;;;;17.92;61.67;100236.50;5009169;28;1842;-95
2022/07/24 16:02:53;;;;;;;;;;;;;;;17.92;61.65;100220.16;5017005;28;1157;-95
2022/07/24 16:08:26;;;;;;;;;;;;;;;17.91;61.72;100204.88;4989465;28;1933;-94
2022/07/24 16:11:07;;;;;;;;;;;;;;;17.90;61.58;100198.63;4992579;28;1292;-95
2022/07/24 16:13:34;;;;;;;;;;;;;;;17.91;61.74;100204.88;4982696;28;1281;-95
2022/07/24 16:16:05;;;;;;;;;;;;;;;17.90;61.51;100195.91;4981937;28;1068;-94
2022/07/24 16:18:34;;;;;;;;;;;;;;;17.90;61.60;100208.72;4987290;28;1398;-95
2022/07/24 16:21:06;;;;;;;;;;;;;;;17.90;61.75;100195.09;4990188;28;1395;-95
2022/07/24 16:23:38;;;;;;;;;;;;;;;17.89;61.64;100188.03;4988678;28;4209;-96
2022/07/24 16:29:06;;;;;;;;;;;;;;;17.89;61.66;100190.75;4989669;28;1911;-95
2022/07/24 16:31:32;;;;;;;;;;;;;;;17.88;61.63;100189.94;4986483;28;1965;-94
2022/07/24 16:33:59;;;;;;;;;;;;;;;17.87;61.60;100185.56;4986638;28;2739;-94
2022/07/24 16:36:27;;;;;;;;;;;;;;;17.88;61.79;100183.66;4993590;28;1168;-96
2022/07/24 16:39:04;;;;;;;;;;;;;;;17.87;61.62;100182.03;4993933;28;1263;-96
2022/07/24 16:41:44;;;;;;;;;;;;;;;17.87;61.73;100171.94;4993113;28;966;-95
2022/07/24 16:44:38;;;;;;;;;;;;;;;17.86;61.51;100156.69;4992802;28;1074;-93
2022/07/24 16:47:05;;;;;;;;;;;;;;;17.86;61.73;100167.59;4996650;28;1273;-94
2022/07/24 16:49:35;;;;;;;;;;;;;;;17.86;61.59;100167.59;4994105;28;1993;-94
2022/07/24 16:52:02;;;;;;;;;;;;;;;17.86;61.54;100161.34;4993456;28;1261;-95
2022/07/24 16:54:28;;;;;;;;;;;;;;;17.85;61.59;100160.53;4992901;28;1652;-94
2022/07/24 16:56:56;;;;;;;;;;;;;;;17.85;61.78;100152.34;4992235;28;1362;-95
2022/07/24 17:02:20;;;;;;;;;;;;;;;17.84;61.77;100134.34;4995076;28;1676;-95
2022/07/24 17:04:49;;;;;;;;;;;;;;;17.84;61.61;100139.00;4973157;29;1617;-96
2022/07/24 17:07:24;;;;;;;;;;;;;;;17.84;61.65;100141.72;4955605;29;1229;-95
2022/07/24 17:09:51;;;;;;;;;;;;;;;17.84;61.68;100149.88;4960612;29;1532;-95
2022/07/24 17:12:22;;;;;;;;;;;;;;;17.84;61.67;100142.53;4971321;29;1453;-95
2022/07/24 17:14:49;;;;;;;;;;;;;;;17.84;61.71;100147.16;4972951;29;1706;-95
2022/07/24 17:17:15;;;;;;;;;;;;;;;17.83;61.83;100143.63;4973690;29;1280;-95
2022/07/24 17:22:27;;;;;;;;;;;;;;;17.83;61.49;100137.38;4966283;29;1571;-94
2022/07/24 17:24:54;;;;;;;;;;;;;;;17.82;61.58;100139.25;4972905;28;1891;-95
2022/07/24 17:27:21;;;;;;;;;;;;;;;17.82;61.55;100131.09;4970870;29;1245;-95
2022/07/24 17:29:49;;;;;;;;;;;;;;;17.83;61.60;100126.47;4973766;29;1891;-96
2022/07/24 17:35:00;;;;;;;;;;;;;;;17.81;61.56;100120.50;4971933;28;953;-95
2022/07/24 17:43:06;;;;;;;;;;;;;;;17.81;61.74;100112.31;4973676;28;1372;-95
2022/07/24 17:48:23;;;;;;;;;;;;;;;17.81;61.51;100115.03;4980437;28;1887;-95
2022/07/24 17:50:55;;;;;;;;;;;;;;;17.81;61.57;100109.59;4991710;28;1257;-95
2022/07/24 18:02:41;;;;;;;;;;;;;;;17.80;61.70;100107.97;4980491;28;640;-94
2022/07/24 18:05:36;;;;;;;;;;;;;;;17.78;61.55;100108.22;5292443;23;2095;-96
2022/07/24 18:08:15;;;;;;;;;;;;;;;17.78;61.63;100102.78;5001027;28;1929;-94
2022/07/24 18:10:41;;;;;;;;;;;;;;;17.79;61.69;100109.03;4996050;28;1309;-94
2022/07/24 18:13:15;;;;;;;;;;;;;;;17.78;61.50;100110.16;4995621;28;1375;-96
2022/07/24 18:15:42;;;;;;;;;;;;;;;17.77;61.73;100101.13;4998574;28;1286;-94
2022/07/24 18:18:08;;;;;;;;;;;;;;;17.77;61.63;100095.69;4994249;28;2546;-95
2022/07/24 18:20:35;;;;;;;;;;;;;;;17.77;61.51;100092.97;4991951;28;1379;-94
2022/07/24 18:23:02;;;;;;;;;;;;;;;17.78;61.44;100091.91;4996144;28;1204;-96
2022/07/24 18:25:28;;;;;;;;;;;;;;;17.77;61.78;100081.25;4992603;28;1708;-94
2022/07/24 18:27:55;;;;;;;;;;;;;;;17.76;61.58;100080.41;4992003;28;1887;-94
2022/07/24 18:30:21;;;;;;;;;;;;;;;17.76;61.68;100079.63;5008579;28;1460;-94
2022/07/24 18:32:49;;;;;;;;;;;;;;;17.76;61.52;100071.44;4992853;28;1356;-94
2022/07/24 18:35:15;;;;;;;;;;;;;;;17.76;61.51;100069.53;5014361;28;1224;-93
2022/07/24 18:37:47;;;;;;;;;;;;;;;17.75;61.61;100062.47;5012434;28;1299;-94
2022/07/24 18:40:13;;;;;;;;;;;;;;;17.75;61.79;100057.03;5015746;28;1189;-93
2022/07/24 18:42:40;;;;;;;;;;;;;;;17.74;61.62;100057.31;5013652;28;1431;-95
2022/07/24 18:45:07;;;;;;;;;;;;;;;17.76;61.59;100066.00;5011499;28;1257;-94
2022/07/24 18:47:33;;;;;;;;;;;;;;;17.75;61.53;100056.22;5012048;28;1177;-94
2022/07/24 18:50:08;;;;;;;;;;;;;;;17.74;61.59;100054.59;5014470;28;1899;-94
2022/07/24 18:52:41;;;;;;;;;;;;;;;17.75;61.54;100051.56;5029873;28;982;-94
2022/07/24 18:57:47;;;;;;;;;;;;;;;17.74;61.58;100046.41;5014984;28;1680;-95
2022/07/24 19:00:14;;;;;;;;;;;;;;;17.73;61.55;100050.22;5014230;28;1172;-95
2022/07/24 19:02:41;;;;;;;;;;;;;;;17.72;61.65;100049.41;5016965;28;1249;-94
2022/07/24 19:08:14;;;;;;;;;;;;;;;17.73;61.55;100047.50;5016163;28;1970;-93
2022/07/24 19:10:42;;;;;;;;;;;;;;;17.70;61.56;100046.94;4995196;28;1771;-94
2022/07/24 19:15:51;;;;;;;;;;;;;;;17.70;61.62;100041.50;4995613;28;1214;-94
2022/07/24 19:18:18;;;;;;;;;;;;;;;17.71;61.54;100045.06;4996633;28;1341;-94
2022/07/24 19:20:45;;;;;;;;;;;;;;;17.70;61.73;100038.78;4996385;28;1215;-94
2022/07/24 19:23:21;;;;;;;;;;;;;;;17.70;61.79;100043.41;4997643;28;1290;-94
2022/07/24 19:25:56;;;;;;;;;;;;;;;17.69;61.57;100037.16;5014848;28;851;-94
2022/07/24 19:28:23;;;;;;;;;;;;;;;17.70;61.61;100040.69;4996847;28;1891;-92
2022/07/24 19:31:09;;;;;;;;;;;;;;;17.68;61.52;100043.72;5016050;28;963;-95
2022/07/24 19:33:35;;;;;;;;;;;;;;;17.69;61.59;100034.44;4996072;28;1263;-94
2022/07/24 19:36:03;;;;;;;;;;;;;;;17.68;61.51;100034.72;4995880;28;1487;-95
2022/07/24 19:38:37;;;;;;;;;;;;;;;17.68;61.81;100038.25;4994268;28;1360;-95
2022/07/24 19:41:04;;;;;;;;;;;;;;;17.67;61.61;100031.16;4996163;28;1311;-94
2022/07/24 19:43:31;;;;;;;;;;;;;;;17.67;61.60;100019.47;4994197;28;1323;-95
2022/07/24 19:46:04;;;;;;;;;;;;;;;17.67;61.63;100017.56;4992459;28;1310;-95
2022/07/24 19:48:30;;;;;;;;;;;;;;;17.67;61.53;100019.47;4991896;28;1948;-94
2022/07/24 19:50:59;;;;;;;;;;;;;;;17.67;61.65;100011.28;4992088;28;1250;-95
2022/07/24 19:53:25;;;;;;;;;;;;;;;17.68;61.61;100015.66;4991003;28;1251;-95
2022/07/24 19:55:52;;;;;;;;;;;;;;;17.67;61.54;100011.28;4990462;28;1847;-95
2022/07/24 19:58:19;;;;;;;;;;;;;;;17.66;61.62;100007.75;4992068;28;1879;-94
2022/07/24 20:01:12;;;;;;;;;;;;;;;17.66;61.82;100002.31;4981000;28;1855;-95
2022/07/24 20:09:10;;;;;;;;;;;;;;;17.65;61.81;100000.69;5007417;28;1906;-93
2022/07/24 20:11:37;;;;;;;;;;;;;;;17.65;61.63;99991.72;4987164;28;1922;-93
2022/07/24 20:14:03;;;;;;;;;;;;;;;17.66;61.79;100006.97;4979297;28;2278;-92
2022/07/24 20:16:30;;;;;;;;;;;;;;;17.65;61.74;99992.53;4984749;28;2115;-95
2022/07/24 20:18:56;;;;;;;;;;;;;;;17.66;61.53;99999.59;4984738;28;1343;-95
2022/07/24 20:21:23;;;;;;;;;;;;;;;17.66;61.72;99996.06;4987190;28;2518;-95
2022/07/24 20:23:49;;;;;;;;;;;;;;;17.65;61.76;99992.53;4982744;28;1416;-94
2022/07/24 20:26:16;;;;;;;;;;;;;;;17.65;61.58;99992.53;4998372;28;1485;-95
2022/07/24 20:28:42;;;;;;;;;;;;;;;17.65;61.72;99995.25;4983206;28;1977;-94
2022/07/24 20:31:09;;;;;;;;;;;;;;;17.65;61.79;99999.88;4982509;28;1754;-94
2022/07/24 20:33:35;;;;;;;;;;;;;;;17.64;61.84;99988.16;4986893;28;2351;-93
2022/07/24 20:36:01;;;;;;;;;;;;;;;17.64;61.62;99987.34;4987484;28;1268;-93
2022/07/24 20:38:28;;;;;;;;;;;;;;;17.63;61.60;99986.53;4982158;28;2106;-95
2022/07/24 20:40:54;;;;;;;;;;;;;;;17.64;61.88;99992.78;4987794;28;1252;-93
2022/07/24 20:43:21;;;;;;;;;;;;;;;17.63;61.68;99997.44;4984955;28;1439;-95
2022/07/24 20:45:47;;;;;;;;;;;;;;;17.63;61.59;100002.88;4982047;28;1581;-95
2022/07/24 20:48:14;;;;;;;;;;;;;;;17.62;61.77;99998.53;4984104;28;1911;-92
2022/07/24 20:50:40;;;;;;;;;;;;;;;17.62;61.59;100000.44;4999857;28;1291;-94
2022/07/24 20:53:06;;;;;;;;;;;;;;;17.62;61.85;100000.44;4985101;28;2568;-94
2022/07/24 20:55:33;;;;;;;;;;;;;;;17.62;61.61;100005.91;4978385;28;2609;-93
2022/07/24 20:57:59;;;;;;;;;;;;;;;17.61;61.81;99996.88;4986366;28;1244;-94
2022/07/24 21:00:26;;;;;;;;;;;;;;;17.62;61.60;99984.13;4992467;28;1559;-94
2022/07/24 21:02:52;;;;;;;;;;;;;;;17.60;61.85;99989.81;4980836;28;5921;-94
2022/07/24 21:05:18;;;;;;;;;;;;;;;17.60;61.68;99981.66;4977932;28;1624;-94
2022/07/24 21:07:45;;;;;;;;;;;;;;;17.61;61.72;99986.00;4987283;28;1238;-94
2022/07/24 21:10:11;;;;;;;;;;;;;;;17.60;61.78;99976.22;4980904;28;1952;-93
2022/07/24 21:12:38;;;;;;;;;;;;;;;17.61;61.75;99974.28;4971468;28;2342;-93
2022/07/24 21:15:05;;;;;;;;;;;;;;;17.60;61.57;99975.41;4976783;28;1174;-94
2022/07/24 21:17:31;;;;;;;;;;;;;;;17.59;61.69;99974.59;4984048;28;1368;-94
2022/07/24 21:19:58;;;;;;;;;;;;;;;17.59;61.83;99969.16;4989655;28;1677;-93
2022/07/24 21:22:24;;;;;;;;;;;;;;;17.59;61.74;99971.88;4984811;28;5661;-94
2022/07/24 21:24:51;;;;;;;;;;;;;;;17.58;61.75;99964.78;4998125;28;1211;-95
2022/07/24 21:27:17;;;;;;;;;;;;;;;17.58;61.70;99967.50;4975780;28;1581;-94
2022/07/24 21:29:44;;;;;;;;;;;;;;;17.59;61.56;99965.59;4981670;28;1910;-94
2022/07/24 21:32:10;;;;;;;;;;;;;;;17.59;61.68;99960.16;4993834;28;1584;-92
2022/07/24 21:34:37;;;;;;;;;;;;;;;17.58;61.60;99953.09;4991085;28;2743;-93
2022/07/24 21:37:03;;;;;;;;;;;;;;;17.58;61.64;99959.34;5004667;28;1173;-93
2022/07/24 21:39:29;;;;;;;;;;;;;;;17.58;61.70;99962.06;5003771;28;1834;-94
2022/07/24 21:41:56;;;;;;;;;;;;;;;17.58;61.58;99953.09;4988125;28;1180;-94
2022/07/24 21:44:22;;;;;;;;;;;;;;;17.58;61.50;99958.53;4987878;28;1731;-93
2022/07/24 21:46:49;;;;;;;;;;;;;;;17.56;61.45;99956.09;5004596;28;1447;-94
2022/07/24 21:49:15;;;;;;;;;;;;;;;17.58;61.55;99953.88;4994737;28;1906;-93
2022/07/24 21:51:41;;;;;;;;;;;;;;;17.56;61.57;99950.66;4991347;28;1677;-92
2022/07/24 21:54:08;;;;;;;;;;;;;;;17.57;61.58;99960.44;4973160;28;1490;-94
2022/07/24 21:56:34;;;;;;;;;;;;;;;17.57;61.47;99960.44;4982454;28;1179;-96
2022/07/24 21:59:01;;;;;;;;;;;;;;;17.57;61.58;99963.16;4969010;28;1276;-94
2022/07/24 22:01:27;;;;;;;;;;;;;;;17.57;61.60;99959.63;4974176;28;1793;-95
2022/07/24 22:03:53;;;;;;;;;;;;;;;17.56;61.52;99961.53;4974966;28;2822;-93
2022/07/24 22:06:21;;;;;;;;;;;;;;;17.56;61.66;99958.81;4969626;28;1241;-95
2022/07/24 22:08:48;;;;;;;;;;;;;;;17.56;61.69;99961.53;4985340;28;1919;-95
2022/07/24 22:11:14;;;;;;;;;;;;;;;17.56;61.55;99955.25;4986099;28;1468;-94
2022/07/24 22:13:41;;;;;;;;;;;;;;;17.56;61.48;99949.81;4988147;28;1388;-91
2022/07/24 22:16:07;;;;;;;;;;;;;;;17.56;61.61;99953.38;4989216;28;1283;-94
2022/07/24 22:18:33;;;;;;;;;;;;;;;17.55;61.48;99945.47;4988334;28;1382;-95
2022/07/24 22:21:00;;;;;;;;;;;;;;;17.56;61.64;99936.19;4998867;28;1818;-96
2022/07/24 22:23:26;;;;;;;;;;;;;;;17.55;61.62;99932.66;4983278;28;1238;-94
2022/07/24 22:25:53;;;;;;;;;;;;;;;17.55;61.74;99929.94;4982004;28;1219;-95
2022/07/24 22:28:19;;;;;;;;;;;;;;;17.55;61.62;99929.94;4982811;28;1328;-93
2022/07/24 22:30:46;;;;;;;;;;;;;;;17.55;61.53;99920.97;4985660;28;1899;-95
2022/07/24 22:33:12;;;;;;;;;;;;;;;17.55;61.62;99915.53;4986871;28;1252;-93
2022/07/24 22:35:39;;;;;;;;;;;;;;;17.55;61.72;99910.09;4988356;28;1172;-94
2022/07/24 22:38:05;;;;;;;;;;;;;;;17.54;61.64;99913.91;4982879;28;1284;-94
2022/07/24 22:40:31;;;;;;;;;;;;;;;17.55;61.63;99912.81;4980087;28;1870;-94
2022/07/24 22:42:58;;;;;;;;;;;;;;;17.54;61.66;99912.00;4982253;28;1264;-94
2022/07/24 22:45:24;;;;;;;;;;;;;;;17.54;61.50;99917.44;4983136;28;1205;-94
2022/07/24 22:47:51;;;;;;;;;;;;;;;17.53;61.54;99907.66;4981865;28;1267;-94
2022/07/24 22:50:17;;;;;;;;;;;;;;;17.53;61.63;99898.66;4982096;28;1971;-94
2022/07/24 22:52:44;;;;;;;;;;;;;;;17.54;61.78;99911.19;4987850;28;1801;-93
2022/07/24 22:55:10;;;;;;;;;;;;;;;17.53;61.59;99899.50;4967055;28;1288;-94
2022/07/24 22:57:37;;;;;;;;;;;;;;;17.53;61.73;99898.66;4985044;28;3618;-93
2022/07/24 23:00:03;;;;;;;;;;;;;;;17.53;61.61;99896.75;4983139;28;1411;-94
2022/07/24 23:02:30;;;;;;;;;;;;;;;17.52;61.82;99892.41;4982579;28;1234;-94
2022/07/24 23:04:56;;;;;;;;;;;;;;;17.52;61.83;99886.94;4982675;28;1265;-94
2022/07/24 23:07:23;;;;;;;;;;;;;;;17.52;61.64;99892.41;4982416;28;1258;-95
2022/07/24 23:09:49;;;;;;;;;;;;;;;17.52;61.81;99895.13;4988864;28;2350;-95
2022/07/24 23:12:16;;;;;;;;;;;;;;;17.52;61.81;99886.16;4981239;28;1585;-93
2022/07/24 23:14:42;;;;;;;;;;;;;;;17.52;61.58;99895.13;4971440;28;1285;-95
2022/07/24 23:17:09;;;;;;;;;;;;;;;17.52;61.65;99886.94;5004609;28;1185;-95
2022/07/24 23:19:35;;;;;;;;;;;;;;;17.52;61.76;99895.13;4989319;28;1551;-95
2022/07/24 23:22:02;;;;;;;;;;;;;;;17.52;61.68;99892.41;4984424;28;1530;-95
2022/07/24 23:24:34;;;;;;;;;;;;;;;17.52;61.70;99888.88;4985703;28;1621;-95
2022/07/24 23:27:00;;;;;;;;;;;;;;;17.51;61.86;99892.69;4986705;28;2233;-94
2022/07/24 23:29:27;;;;;;;;;;;;;;;17.51;61.72;99889.97;4988131;28;1882;-94
2022/07/24 23:31:53;;;;;;;;;;;;;;;17.52;61.70;99895.13;4985111;28;2352;-96
2022/07/24 23:34:20;;;;;;;;;;;;;;;17.51;61.69;99893.50;4986279;28;2836;-93
2022/07/24 23:36:46;;;;;;;;;;;;;;;17.51;61.85;99889.97;4986707;28;2363;-94
2022/07/24 23:39:13;;;;;;;;;;;;;;;17.49;61.78;99885.59;4994151;28;1964;-94
2022/07/24 23:41:39;;;;;;;;;;;;;;;17.51;61.93;99898.13;4984970;28;1418;-96
2022/07/24 23:44:06;;;;;;;;;;;;;;;17.51;61.85;99879.09;4987417;28;1474;-93
2022/07/24 23:46:32;;;;;;;;;;;;;;;17.50;61.85;99878.28;4971824;28;1459;-95
2022/07/24 23:48:58;;;;;;;;;;;;;;;17.50;61.73;99867.38;4985486;28;2821;-95
2022/07/24 23:51:25;;;;;;;;;;;;;;;17.49;61.91;99865.75;4982308;28;2382;-96
2022/07/24 23:53:52;;;;;;;;;;;;;;;17.49;61.75;99863.03;4981140;28;1414;-93
2022/07/24 23:56:18;;;;;;;;;;;;;;;17.48;61.99;99869.56;4987122;28;1221;-94
2022/07/24 23:58:45;;;;;;;;;;;;;;;17.48;61.79;99870.38;4986509;28;1335;-95
